UAL774 KDEN-KLAX
Flight info
| Callsign | UAL774 |
|---|---|
| Flight time | N/A |
| Altitude | 38000 |
| Route | CONNR8 WERNR ZAKRY CHESZ Q88 HAKMN ANJLL4 |
| Aircraft | A319/M-SDE3GHIRWYZ/LB1 |
Departure
| Time | N/A |
|---|---|
| Airport | Denver International Airport (KDEN) |
Arrival
| Time | 2026-04-20 22:54 |
|---|---|
| Airport | Los Angeles International Airport (KLAX) |
| Time | Latitude | Longitude | Altitude | Speed | Heading |
|---|---|---|---|---|---|
| 2026-04-20 22:27 | 34.93040 | -115.82579 | 37988 ft | 412 kts | 225° |
| 2026-04-20 22:27 | 34.89082 | -115.87612 | 37991 ft | 411 kts | 225° |
| 2026-04-20 22:28 | 34.85149 | -115.92610 | 37993 ft | 411 kts | 225° |
| 2026-04-20 22:28 | 34.81196 | -115.97625 | 37981 ft | 410 kts | 225° |
| 2026-04-20 22:29 | 34.77245 | -116.02626 | 37967 ft | 410 kts | 225° |
| 2026-04-20 22:29 | 34.73306 | -116.07639 | 37971 ft | 409 kts | 225° |
| 2026-04-20 22:30 | 34.69388 | -116.12624 | 37986 ft | 408 kts | 225° |
| 2026-04-20 22:30 | 34.65485 | -116.17584 | 38004 ft | 407 kts | 225° |
| 2026-04-20 22:31 | 34.61608 | -116.22510 | 38011 ft | 406 kts | 225° |
| 2026-04-20 22:31 | 34.57680 | -116.27492 | 38027 ft | 406 kts | 225° |
| 2026-04-20 22:32 | 34.53795 | -116.32415 | 38035 ft | 406 kts | 225° |
| 2026-04-20 22:32 | 34.49897 | -116.37345 | 38035 ft | 406 kts | 225° |
| 2026-04-20 22:33 | 34.45993 | -116.42273 | 38038 ft | 404 kts | 225° |
| 2026-04-20 22:33 | 34.42278 | -116.47346 | 37901 ft | 400 kts | 232° |
| 2026-04-20 22:34 | 34.40754 | -116.50096 | 36903 ft | 399 kts | 238° |
| 2026-04-20 22:34 | 34.39435 | -116.53047 | 35096 ft | 411 kts | 241° |
| 2026-04-20 22:34 | 34.38152 | -116.56169 | 33104 ft | 424 kts | 242° |
| 2026-04-20 22:34 | 34.36872 | -116.59327 | 31291 ft | 432 kts | 242° |
| 2026-04-20 22:35 | 34.35554 | -116.62563 | 29694 ft | 431 kts | 242° |
| 2026-04-20 22:35 | 34.34250 | -116.65741 | 28580 ft | 420 kts | 241° |
| 2026-04-20 22:35 | 34.32984 | -116.68824 | 27489 ft | 410 kts | 242° |
| 2026-04-20 22:35 | 34.31743 | -116.71902 | 26297 ft | 402 kts | 242° |
| 2026-04-20 22:36 | 34.30545 | -116.74890 | 25110 ft | 395 kts | 242° |
| 2026-04-20 22:36 | 34.29369 | -116.77821 | 23939 ft | 388 kts | 242° |
| 2026-04-20 22:36 | 34.28209 | -116.80707 | 23202 ft | 380 kts | 242° |
| 2026-04-20 22:36 | 34.27072 | -116.83533 | 22824 ft | 371 kts | 242° |
| 2026-04-20 22:37 | 34.25965 | -116.86283 | 22411 ft | 365 kts | 242° |
| 2026-04-20 22:37 | 34.24859 | -116.89023 | 21990 ft | 361 kts | 242° |
| 2026-04-20 22:37 | 34.23769 | -116.91725 | 21568 ft | 357 kts | 242° |
| 2026-04-20 22:37 | 34.22677 | -116.94427 | 21142 ft | 354 kts | 242° |
| 2026-04-20 22:38 | 34.21633 | -116.97082 | 20713 ft | 352 kts | 244° |
| 2026-04-20 22:38 | 34.20712 | -116.99841 | 20273 ft | 351 kts | 248° |
| 2026-04-20 22:38 | 34.19936 | -117.02613 | 19827 ft | 350 kts | 249° |
| 2026-04-20 22:38 | 34.19188 | -117.05385 | 19400 ft | 348 kts | 250° |
| 2026-04-20 22:39 | 34.18449 | -117.08131 | 18971 ft | 346 kts | 250° |
| 2026-04-20 22:39 | 34.17704 | -117.10889 | 18538 ft | 344 kts | 250° |
| 2026-04-20 22:39 | 34.16959 | -117.13643 | 18108 ft | 342 kts | 249° |
| 2026-04-20 22:39 | 34.16224 | -117.16353 | 17683 ft | 340 kts | 249° |
| 2026-04-20 22:40 | 34.15483 | -117.19050 | 17270 ft | 339 kts | 249° |
| 2026-04-20 22:40 | 34.14743 | -117.21738 | 16847 ft | 338 kts | 249° |
| 2026-04-20 22:40 | 34.14008 | -117.24409 | 16419 ft | 337 kts | 249° |
| 2026-04-20 22:40 | 34.13273 | -117.27074 | 15986 ft | 336 kts | 249° |
| 2026-04-20 22:41 | 34.12536 | -117.29745 | 15553 ft | 335 kts | 249° |
| 2026-04-20 22:41 | 34.11805 | -117.32393 | 15124 ft | 334 kts | 249° |
| 2026-04-20 22:41 | 34.11069 | -117.35061 | 14691 ft | 333 kts | 249° |
| 2026-04-20 22:41 | 34.10348 | -117.37685 | 14256 ft | 332 kts | 250° |
| 2026-04-20 22:42 | 34.09674 | -117.40337 | 13818 ft | 332 kts | 251° |
| 2026-04-20 22:42 | 34.09021 | -117.42981 | 13387 ft | 331 kts | 251° |
| 2026-04-20 22:42 | 34.08366 | -117.45631 | 12955 ft | 330 kts | 251° |
| 2026-04-20 22:42 | 34.07708 | -117.48267 | 12517 ft | 329 kts | 250° |
| 2026-04-20 22:43 | 34.06945 | -117.50851 | 12122 ft | 325 kts | 246° |
| 2026-04-20 22:43 | 34.06076 | -117.53323 | 11795 ft | 320 kts | 244° |
| 2026-04-20 22:43 | 34.05186 | -117.55796 | 11288 ft | 322 kts | 244° |
| 2026-04-20 22:43 | 34.04297 | -117.58255 | 10805 ft | 322 kts | 244° |
| 2026-04-20 22:44 | 34.03407 | -117.60721 | 10447 ft | 319 kts | 244° |
| 2026-04-20 22:44 | 34.02531 | -117.63152 | 10175 ft | 313 kts | 244° |
| 2026-04-20 22:44 | 34.01675 | -117.65530 | 10031 ft | 302 kts | 244° |
| 2026-04-20 22:44 | 34.00915 | -117.67832 | 9956 ft | 291 kts | 250° |
| 2026-04-20 22:45 | 34.00479 | -117.70167 | 9755 ft | 288 kts | 258° |
| 2026-04-20 22:45 | 34.00224 | -117.72579 | 9343 ft | 291 kts | 261° |
| 2026-04-20 22:45 | 34.00006 | -117.74976 | 8968 ft | 291 kts | 261° |
| 2026-04-20 22:45 | 33.99783 | -117.77399 | 8596 ft | 292 kts | 261° |
| 2026-04-20 22:46 | 33.99553 | -117.79831 | 8225 ft | 291 kts | 261° |
| 2026-04-20 22:46 | 33.99319 | -117.82253 | 7878 ft | 291 kts | 261° |
| 2026-04-20 22:46 | 33.99086 | -117.84641 | 7570 ft | 289 kts | 261° |
| 2026-04-20 22:46 | 33.98852 | -117.87057 | 7258 ft | 287 kts | 261° |
| 2026-04-20 22:47 | 33.98621 | -117.89426 | 6956 ft | 285 kts | 261° |
| 2026-04-20 22:47 | 33.98394 | -117.91756 | 6675 ft | 282 kts | 261° |
| 2026-04-20 22:47 | 33.98164 | -117.94096 | 6407 ft | 279 kts | 261° |
| 2026-04-20 22:47 | 33.97938 | -117.96392 | 6144 ft | 275 kts | 262° |
| 2026-04-20 22:48 | 33.97713 | -117.98664 | 5895 ft | 272 kts | 262° |
| 2026-04-20 22:48 | 33.97493 | -118.00897 | 5645 ft | 269 kts | 262° |
| 2026-04-20 22:48 | 33.97271 | -118.03135 | 5404 ft | 265 kts | 263° |
| 2026-04-20 22:48 | 33.97091 | -118.05318 | 5171 ft | 261 kts | 263° |
| 2026-04-20 22:49 | 33.96914 | -118.07489 | 4922 ft | 259 kts | 263° |
| 2026-04-20 22:49 | 33.96716 | -118.09630 | 4597 ft | 259 kts | 262° |
| 2026-04-20 22:49 | 33.96498 | -118.11790 | 4264 ft | 260 kts | 262° |
| 2026-04-20 22:49 | 33.96276 | -118.13908 | 3928 ft | 247 kts | 262° |
| 2026-04-20 22:50 | 33.96063 | -118.15901 | 3615 ft | 234 kts | 262° |
| 2026-04-20 22:50 | 33.95862 | -118.17789 | 3320 ft | 224 kts | 263° |
| 2026-04-20 22:50 | 33.95669 | -118.19608 | 3038 ft | 216 kts | 263° |
| 2026-04-20 22:50 | 33.95486 | -118.21352 | 2767 ft | 208 kts | 263° |
| 2026-04-20 22:51 | 33.95306 | -118.23065 | 2501 ft | 203 kts | 262° |
| 2026-04-20 22:51 | 33.95132 | -118.24737 | 2240 ft | 199 kts | 262° |
| 2026-04-20 22:51 | 33.94963 | -118.26368 | 1987 ft | 194 kts | 262° |
| 2026-04-20 22:51 | 33.94799 | -118.27954 | 1738 ft | 189 kts | 262° |
| 2026-04-20 22:52 | 33.94638 | -118.29501 | 1547 ft | 180 kts | 262° |
| 2026-04-20 22:52 | 33.94487 | -118.30966 | 1311 ft | 173 kts | 262° |
| 2026-04-20 22:52 | 33.94342 | -118.32363 | 1085 ft | 165 kts | 262° |
| 2026-04-20 22:52 | 33.94204 | -118.33707 | 864 ft | 156 kts | 262° |
| 2026-04-20 22:53 | 33.94077 | -118.34956 | 649 ft | 144 kts | 261° |
| 2026-04-20 22:53 | 33.93961 | -118.36095 | 464 ft | 131 kts | 261° |
| 2026-04-20 22:53 | 33.93853 | -118.37152 | 293 ft | 123 kts | 261° |
| 2026-04-20 22:53 | 33.93752 | -118.38158 | 166 ft | 122 kts | 261° |
| 2026-04-20 22:54 | 33.93642 | -118.39140 | 108 ft | 107 kts | 263° |
| 2026-04-20 22:54 | 33.93576 | -118.39828 | 114 ft | 58 kts | 263° |
| 2026-04-20 22:54 | 33.93584 | -118.40242 | 121 ft | 40 kts | 290° |
| 2026-04-20 22:54 | 33.93620 | -118.40498 | 124 ft | 28 kts | 262° |
| 2026-04-20 22:55 | 33.93597 | -118.40720 | 126 ft | 25 kts | 264° |
| 2026-04-20 22:55 | 33.93611 | -118.40868 | 127 ft | 14 kts | 302° |
| 2026-04-20 22:55 | 33.93705 | -118.40907 | 127 ft | 15 kts | 355° |
| 2026-04-20 22:55 | 33.93801 | -118.40919 | 127 ft | 13 kts | 353° |
| 2026-04-20 22:56 | 33.93874 | -118.40881 | 127 ft | 13 kts | 82° |
| 2026-04-20 22:56 | 33.93882 | -118.40758 | 127 ft | 15 kts | 84° |
| 2026-04-20 22:56 | 33.93898 | -118.40623 | 125 ft | 17 kts | 82° |
| 2026-04-20 22:56 | 33.93915 | -118.40466 | 123 ft | 19 kts | 82° |
| 2026-04-20 22:57 | 33.93932 | -118.40291 | 121 ft | 21 kts | 84° |
| 2026-04-20 22:57 | 33.93949 | -118.40110 | 120 ft | 21 kts | 83° |
| 2026-04-20 22:57 | 33.94046 | -118.40076 | 118 ft | 17 kts | 355° |
| 2026-04-20 22:57 | 33.94171 | -118.40094 | 118 ft | 18 kts | 352° |
| 2026-04-20 22:58 | 33.94237 | -118.40089 | 118 ft | 3 kts | 99° |
| 2026-04-20 22:58 | 33.94237 | -118.40050 | 118 ft | 5 kts | 89° |
| 2026-04-20 22:58 | 33.94237 | -118.40045 | 118 ft | 0 kts | 89° |